sensor_id;sensor_type;location;lat;lon;timestamp;temperature;humidity
21267;DHT22;10791;53.108;18.326;2023-06-14T00:02:29;14.90;99.90
21267;DHT22;10791;53.108;18.326;2023-06-14T00:07:38;14.90;99.90
21267;DHT22;10791;53.108;18.326;2023-06-14T00:12:45;14.90;99.90
21267;DHT22;10791;53.108;18.326;2023-06-14T00:17:48;15.00;99.90
21267;DHT22;10791;53.108;18.326;2023-06-14T00:22:52;15.00;99.90
21267;DHT22;10791;53.108;18.326;2023-06-14T00:27:56;15.00;99.90
21267;DHT22;10791;53.108;18.326;2023-06-14T00:32:59;15.00;99.90
21267;DHT22;10791;53.108;18.326;2023-06-14T00:38:03;15.00;99.90
21267;DHT22;10791;53.108;18.326;2023-06-14T00:43:07;14.90;99.90
21267;DHT22;10791;53.108;18.326;2023-06-14T00:48:11;14.80;99.90
21267;DHT22;10791;53.108;18.326;2023-06-14T00:53:16;14.80;99.90
21267;DHT22;10791;53.108;18.326;2023-06-14T00:58:22;14.70;99.90
21267;DHT22;10791;53.108;18.326;2023-06-14T01:03:25;14.70;99.90
21267;DHT22;10791;53.108;18.326;2023-06-14T01:13:46;14.60;99.90
21267;DHT22;10791;53.108;18.326;2023-06-14T01:18:52;14.60;99.90
21267;DHT22;10791;53.108;18.326;2023-06-14T01:23:59;14.60;99.90
21267;DHT22;10791;53.108;18.326;2023-06-14T01:29:03;14.50;99.90
21267;DHT22;10791;53.108;18.326;2023-06-14T01:34:07;14.50;99.90
21267;DHT22;10791;53.108;18.326;2023-06-14T01:39:15;14.50;99.90
21267;DHT22;10791;53.108;18.326;2023-06-14T01:44:19;14.40;99.90
21267;DHT22;10791;53.108;18.326;2023-06-14T01:49:23;14.40;99.90
21267;DHT22;10791;53.108;18.326;2023-06-14T01:54:26;14.40;99.90
21267;DHT22;10791;53.108;18.326;2023-06-14T01:59:30;14.30;99.90
21267;DHT22;10791;53.108;18.326;2023-06-14T02:04:34;14.30;99.90
21267;DHT22;10791;53.108;18.326;2023-06-14T02:09:37;14.30;99.90
21267;DHT22;10791;53.108;18.326;2023-06-14T02:14:40;14.20;99.90
21267;DHT22;10791;53.108;18.326;2023-06-14T02:19:44;14.10;99.90
21267;DHT22;10791;53.108;18.326;2023-06-14T02:24:48;14.00;99.90
21267;DHT22;10791;53.108;18.326;2023-06-14T02:30:01;14.00;99.90
21267;DHT22;10791;53.108;18.326;2023-06-14T02:35:05;13.90;99.90
21267;DHT22;10791;53.108;18.326;2023-06-14T02:40:09;14.00;99.90
21267;DHT22;10791;53.108;18.326;2023-06-14T02:45:13;14.00;99.90
21267;DHT22;10791;53.108;18.326;2023-06-14T02:50:16;14.00;99.90
21267;DHT22;10791;53.108;18.326;2023-06-14T02:55:20;13.90;99.90
21267;DHT22;10791;53.108;18.326;2023-06-14T03:00:24;13.90;99.90
21267;DHT22;10791;53.108;18.326;2023-06-14T03:05:28;13.90;99.90
21267;DHT22;10791;53.108;18.326;2023-06-14T03:10:31;14.00;99.90
21267;DHT22;10791;53.108;18.326;2023-06-14T03:15:35;14.00;99.90
21267;DHT22;10791;53.108;18.326;2023-06-14T03:20:39;13.90;99.90
21267;DHT22;10791;53.108;18.326;2023-06-14T03:25:42;13.90;99.90
21267;DHT22;10791;53.108;18.326;2023-06-14T03:30:45;13.80;99.90
21267;DHT22;10791;53.108;18.326;2023-06-14T03:35:49;14.00;99.90
21267;DHT22;10791;53.108;18.326;2023-06-14T03:40:53;14.00;99.90
21267;DHT22;10791;53.108;18.326;2023-06-14T03:45:56;14.10;99.90
21267;DHT22;10791;53.108;18.326;2023-06-14T03:50:59;14.20;99.90
21267;DHT22;10791;53.108;18.326;2023-06-14T03:56:03;14.20;99.90
21267;DHT22;10791;53.108;18.326;2023-06-14T04:01:07;14.20;99.90
21267;DHT22;10791;53.108;18.326;2023-06-14T04:06:10;14.20;99.90
21267;DHT22;10791;53.108;18.326;2023-06-14T04:11:13;14.20;99.90
21267;DHT22;10791;53.108;18.326;2023-06-14T04:16:16;14.20;99.90
21267;DHT22;10791;53.108;18.326;2023-06-14T04:21:20;14.20;99.90
21267;DHT22;10791;53.108;18.326;2023-06-14T04:26:23;14.20;99.90
21267;DHT22;10791;53.108;18.326;2023-06-14T04:31:33;14.20;99.90
21267;DHT22;10791;53.108;18.326;2023-06-14T04:36:36;14.30;99.90
21267;DHT22;10791;53.108;18.326;2023-06-14T04:41:39;14.40;99.90
21267;DHT22;10791;53.108;18.326;2023-06-14T04:46:43;14.60;99.90
21267;DHT22;10791;53.108;18.326;2023-06-14T04:51:49;14.70;99.90
21267;DHT22;10791;53.108;18.326;2023-06-14T04:57:00;14.80;99.90
21267;DHT22;10791;53.108;18.326;2023-06-14T05:02:03;14.80;99.90
21267;DHT22;10791;53.108;18.326;2023-06-14T05:07:07;14.90;99.90
21267;DHT22;10791;53.108;18.326;2023-06-14T05:12:11;14.90;99.90
21267;DHT22;10791;53.108;18.326;2023-06-14T05:17:14;15.00;99.90
21267;DHT22;10791;53.108;18.326;2023-06-14T05:22:19;15.20;99.90
21267;DHT22;10791;53.108;18.326;2023-06-14T05:27:23;15.30;99.90
21267;DHT22;10791;53.108;18.326;2023-06-14T05:32:27;15.40;99.90
21267;DHT22;10791;53.108;18.326;2023-06-14T05:37:31;15.50;99.90
21267;DHT22;10791;53.108;18.326;2023-06-14T05:42:34;15.60;99.90
21267;DHT22;10791;53.108;18.326;2023-06-14T05:47:37;15.80;99.90
21267;DHT22;10791;53.108;18.326;2023-06-14T05:52:41;16.00;99.90
21267;DHT22;10791;53.108;18.326;2023-06-14T05:57:44;16.10;99.90
21267;DHT22;10791;53.108;18.326;2023-06-14T06:02:47;16.30;99.90
21267;DHT22;10791;53.108;18.326;2023-06-14T06:07:52;16.50;99.90
21267;DHT22;10791;53.108;18.326;2023-06-14T06:12:55;16.60;99.90
21267;DHT22;10791;53.108;18.326;2023-06-14T06:17:58;16.80;99.90
21267;DHT22;10791;53.108;18.326;2023-06-14T06:23:01;17.00;99.90
21267;DHT22;10791;53.108;18.326;2023-06-14T06:28:04;17.10;99.90
21267;DHT22;10791;53.108;18.326;2023-06-14T06:33:08;17.20;99.90
21267;DHT22;10791;53.108;18.326;2023-06-14T06:38:11;17.30;99.90
21267;DHT22;10791;53.108;18.326;2023-06-14T06:43:15;17.40;99.90
21267;DHT22;10791;53.108;18.326;2023-06-14T06:48:19;17.40;99.90
21267;DHT22;10791;53.108;18.326;2023-06-14T06:53:22;17.50;99.90
21267;DHT22;10791;53.108;18.326;2023-06-14T06:58:41;17.50;99.90
21267;DHT22;10791;53.108;18.326;2023-06-14T07:03:44;17.60;99.90
21267;DHT22;10791;53.108;18.326;2023-06-14T07:08:48;17.50;99.90
21267;DHT22;10791;53.108;18.326;2023-06-14T07:13:51;17.60;99.90
21267;DHT22;10791;53.108;18.326;2023-06-14T07:18:55;17.60;99.90
21267;DHT22;10791;53.108;18.326;2023-06-14T07:23:58;17.50;99.90
21267;DHT22;10791;53.108;18.326;2023-06-14T07:29:02;17.50;99.90
21267;DHT22;10791;53.108;18.326;2023-06-14T07:34:05;17.60;99.90
21267;DHT22;10791;53.108;18.326;2023-06-14T07:39:10;17.80;99.90
21267;DHT22;10791;53.108;18.326;2023-06-14T07:44:13;17.90;99.90
21267;DHT22;10791;53.108;18.326;2023-06-14T07:49:16;18.10;99.90
21267;DHT22;10791;53.108;18.326;2023-06-14T07:54:20;18.20;99.90
21267;DHT22;10791;53.108;18.326;2023-06-14T07:59:27;18.50;99.90
21267;DHT22;10791;53.108;18.326;2023-06-14T08:04:31;18.70;99.90
21267;DHT22;10791;53.108;18.326;2023-06-14T08:09:35;18.90;99.90
21267;DHT22;10791;53.108;18.326;2023-06-14T08:14:42;18.90;99.90
21267;DHT22;10791;53.108;18.326;2023-06-14T08:19:45;18.90;99.90
21267;DHT22;10791;53.108;18.326;2023-06-14T08:24:52;18.90;99.90
21267;DHT22;10791;53.108;18.326;2023-06-14T08:29:56;19.10;99.90
21267;DHT22;10791;53.108;18.326;2023-06-14T08:35:00;19.40;99.90
21267;DHT22;10791;53.108;18.326;2023-06-14T08:40:22;19.80;99.90
21267;DHT22;10791;53.108;18.326;2023-06-14T08:45:26;20.10;99.90
21267;DHT22;10791;53.108;18.326;2023-06-14T08:50:32;20.00;99.90
21267;DHT22;10791;53.108;18.326;2023-06-14T08:55:38;20.10;99.90
21267;DHT22;10791;53.108;18.326;2023-06-14T09:00:45;20.30;99.90
21267;DHT22;10791;53.108;18.326;2023-06-14T09:05:49;20.50;99.90
21267;DHT22;10791;53.108;18.326;2023-06-14T09:10:53;20.80;99.80
21267;DHT22;10791;53.108;18.326;2023-06-14T09:15:59;21.10;99.70
21267;DHT22;10791;53.108;18.326;2023-06-14T09:21:02;21.40;99.00
21267;DHT22;10791;53.108;18.326;2023-06-14T09:26:10;21.50;96.50
21267;DHT22;10791;53.108;18.326;2023-06-14T09:31:20;21.40;95.80
21267;DHT22;10791;53.108;18.326;2023-06-14T09:36:24;21.50;96.30
21267;DHT22;10791;53.108;18.326;2023-06-14T09:41:32;21.70;94.20
21267;DHT22;10791;53.108;18.326;2023-06-14T09:46:36;21.60;94.50
21267;DHT22;10791;53.108;18.326;2023-06-14T09:51:43;22.00;94.60
21267;DHT22;10791;53.108;18.326;2023-06-14T09:56:48;22.40;93.60
21267;DHT22;10791;53.108;18.326;2023-06-14T10:01:56;22.50;92.70
21267;DHT22;10791;53.108;18.326;2023-06-14T10:07:00;22.40;93.10
21267;DHT22;10791;53.108;18.326;2023-06-14T10:12:05;22.20;92.30
21267;DHT22;10791;53.108;18.326;2023-06-14T10:17:10;22.20;91.20
21267;DHT22;10791;53.108;18.326;2023-06-14T10:22:42;22.40;91.80
21267;DHT22;10791;53.108;18.326;2023-06-14T10:27:44;22.60;90.70
21267;DHT22;10791;53.108;18.326;2023-06-14T10:33:08;22.50;90.50
21267;DHT22;10791;53.108;18.326;2023-06-14T10:38:13;23.00;91.20
21267;DHT22;10791;53.108;18.326;2023-06-14T10:43:22;23.50;87.80
21267;DHT22;10791;53.108;18.326;2023-06-14T10:48:30;23.40;85.40
21267;DHT22;10791;53.108;18.326;2023-06-14T10:53:42;23.70;88.60
21267;DHT22;10791;53.108;18.326;2023-06-14T10:58:46;23.80;85.30
21267;DHT22;10791;53.108;18.326;2023-06-14T11:03:52;24.00;86.40
21267;DHT22;10791;53.108;18.326;2023-06-14T11:09:31;23.70;85.60
21267;DHT22;10791;53.108;18.326;2023-06-14T11:14:46;23.60;85.90
21267;DHT22;10791;53.108;18.326;2023-06-14T11:19:50;23.80;83.90
21267;DHT22;10791;53.108;18.326;2023-06-14T11:24:53;24.00;78.50
21267;DHT22;10791;53.108;18.326;2023-06-14T11:29:57;24.50;78.00
21267;DHT22;10791;53.108;18.326;2023-06-14T11:35:03;24.40;70.40
21267;DHT22;10791;53.108;18.326;2023-06-14T11:40:08;24.40;69.40
21267;DHT22;10791;53.108;18.326;2023-06-14T11:45:12;24.40;64.20
21267;DHT22;10791;53.108;18.326;2023-06-14T11:50:16;24.00;60.60
21267;DHT22;10791;53.108;18.326;2023-06-14T11:55:19;23.90;64.10
21267;DHT22;10791;53.108;18.326;2023-06-14T12:00:26;24.00;67.30
21267;DHT22;10791;53.108;18.326;2023-06-14T12:05:32;23.60;69.10
21267;DHT22;10791;53.108;18.326;2023-06-14T12:10:42;23.10;71.20
21267;DHT22;10791;53.108;18.326;2023-06-14T12:15:54;22.80;71.30
21267;DHT22;10791;53.108;18.326;2023-06-14T12:20:59;22.60;72.30
21267;DHT22;10791;53.108;18.326;2023-06-14T12:26:05;22.40;75.10
21267;DHT22;10791;53.108;18.326;2023-06-14T12:31:14;22.30;73.80
21267;DHT22;10791;53.108;18.326;2023-06-14T12:36:19;22.10;75.40
21267;DHT22;10791;53.108;18.326;2023-06-14T12:41:23;22.20;76.40
21267;DHT22;10791;53.108;18.326;2023-06-14T12:46:27;22.40;77.10
21267;DHT22;10791;53.108;18.326;2023-06-14T12:51:30;22.20;76.60
21267;DHT22;10791;53.108;18.326;2023-06-14T12:56:34;22.20;78.00
21267;DHT22;10791;53.108;18.326;2023-06-14T13:01:38;22.10;79.10
21267;DHT22;10791;53.108;18.326;2023-06-14T13:06:42;22.10;79.60
21267;DHT22;10791;53.108;18.326;2023-06-14T13:11:46;22.00;78.80
21267;DHT22;10791;53.108;18.326;2023-06-14T13:16:50;21.90;76.10
21267;DHT22;10791;53.108;18.326;2023-06-14T13:21:53;22.00;75.80
21267;DHT22;10791;53.108;18.326;2023-06-14T13:26:57;22.10;75.80
21267;DHT22;10791;53.108;18.326;2023-06-14T13:32:00;22.00;71.80
21267;DHT22;10791;53.108;18.326;2023-06-14T13:37:04;21.50;72.20
21267;DHT22;10791;53.108;18.326;2023-06-14T13:42:08;21.50;73.10
21267;DHT22;10791;53.108;18.326;2023-06-14T13:47:11;21.40;74.10
21267;DHT22;10791;53.108;18.326;2023-06-14T13:52:15;20.90;74.50
21267;DHT22;10791;53.108;18.326;2023-06-14T13:57:19;20.40;77.00
21267;DHT22;10791;53.108;18.326;2023-06-14T14:02:23;20.00;79.90
21267;DHT22;10791;53.108;18.326;2023-06-14T14:07:29;19.80;83.30
21267;DHT22;10791;53.108;18.326;2023-06-14T14:12:34;19.40;87.90
21267;DHT22;10791;53.108;18.326;2023-06-14T14:17:37;19.10;90.80
21267;DHT22;10791;53.108;18.326;2023-06-14T14:22:42;18.80;92.30
21267;DHT22;10791;53.108;18.326;2023-06-14T14:27:47;18.20;94.70
21267;DHT22;10791;53.108;18.326;2023-06-14T14:32:50;18.30;96.70
21267;DHT22;10791;53.108;18.326;2023-06-14T14:37:54;18.30;97.30
21267;DHT22;10791;53.108;18.326;2023-06-14T14:42:58;18.30;98.40
21267;DHT22;10791;53.108;18.326;2023-06-14T14:48:01;18.30;99.90
21267;DHT22;10791;53.108;18.326;2023-06-14T14:53:06;18.30;99.90
21267;DHT22;10791;53.108;18.326;2023-06-14T14:58:11;18.30;99.90
21267;DHT22;10791;53.108;18.326;2023-06-14T15:03:15;18.20;99.90
21267;DHT22;10791;53.108;18.326;2023-06-14T15:08:19;18.00;99.90
21267;DHT22;10791;53.108;18.326;2023-06-14T15:13:22;17.90;99.90
21267;DHT22;10791;53.108;18.326;2023-06-14T15:18:26;17.80;99.90
21267;DHT22;10791;53.108;18.326;2023-06-14T15:23:29;17.80;99.90
21267;DHT22;10791;53.108;18.326;2023-06-14T15:28:33;17.70;99.90
21267;DHT22;10791;53.108;18.326;2023-06-14T15:33:36;17.60;99.90
21267;DHT22;10791;53.108;18.326;2023-06-14T15:38:39;17.60;99.90
21267;DHT22;10791;53.108;18.326;2023-06-14T15:43:43;17.50;99.90
21267;DHT22;10791;53.108;18.326;2023-06-14T15:48:46;17.50;99.90
21267;DHT22;10791;53.108;18.326;2023-06-14T15:53:50;17.60;99.90
21267;DHT22;10791;53.108;18.326;2023-06-14T15:58:56;17.70;99.90
21267;DHT22;10791;53.108;18.326;2023-06-14T16:03:59;17.90;99.90
21267;DHT22;10791;53.108;18.326;2023-06-14T16:09:03;18.00;99.90
21267;DHT22;10791;53.108;18.326;2023-06-14T16:14:07;18.00;99.90
21267;DHT22;10791;53.108;18.326;2023-06-14T16:19:10;17.90;99.90
21267;DHT22;10791;53.108;18.326;2023-06-14T16:24:14;17.90;99.90
21267;DHT22;10791;53.108;18.326;2023-06-14T16:29:17;17.80;99.90
21267;DHT22;10791;53.108;18.326;2023-06-14T16:34:21;17.70;99.90
21267;DHT22;10791;53.108;18.326;2023-06-14T16:39:25;17.50;99.90
21267;DHT22;10791;53.108;18.326;2023-06-14T16:44:29;17.30;99.90
21267;DHT22;10791;53.108;18.326;2023-06-14T16:49:33;16.90;99.90
21267;DHT22;10791;53.108;18.326;2023-06-14T16:54:38;16.70;99.90
21267;DHT22;10791;53.108;18.326;2023-06-14T16:59:41;16.50;99.90
21267;DHT22;10791;53.108;18.326;2023-06-14T17:04:45;16.30;99.90
21267;DHT22;10791;53.108;18.326;2023-06-14T17:09:49;16.10;99.90
21267;DHT22;10791;53.108;18.326;2023-06-14T17:14:52;16.00;99.90
21267;DHT22;10791;53.108;18.326;2023-06-14T17:19:56;15.90;99.90
21267;DHT22;10791;53.108;18.326;2023-06-14T17:25:00;15.90;99.90
21267;DHT22;10791;53.108;18.326;2023-06-14T17:30:05;16.00;99.90
21267;DHT22;10791;53.108;18.326;2023-06-14T17:35:09;15.80;99.90
21267;DHT22;10791;53.108;18.326;2023-06-14T17:40:16;15.70;99.90
21267;DHT22;10791;53.108;18.326;2023-06-14T17:45:22;15.70;99.90
21267;DHT22;10791;53.108;18.326;2023-06-14T17:50:27;15.60;99.90
21267;DHT22;10791;53.108;18.326;2023-06-14T17:55:30;15.50;99.90
21267;DHT22;10791;53.108;18.326;2023-06-14T18:00:33;15.40;99.90
21267;DHT22;10791;53.108;18.326;2023-06-14T18:05:37;15.20;99.90
21267;DHT22;10791;53.108;18.326;2023-06-14T18:10:42;15.10;99.90
21267;DHT22;10791;53.108;18.326;2023-06-14T18:15:45;15.10;99.90
21267;DHT22;10791;53.108;18.326;2023-06-14T18:20:49;15.10;99.90
21267;DHT22;10791;53.108;18.326;2023-06-14T18:25:52;15.20;99.90
21267;DHT22;10791;53.108;18.326;2023-06-14T18:30:56;15.30;99.90
21267;DHT22;10791;53.108;18.326;2023-06-14T18:36:01;15.30;99.90
21267;DHT22;10791;53.108;18.326;2023-06-14T18:41:05;15.30;99.90
21267;DHT22;10791;53.108;18.326;2023-06-14T18:46:12;15.30;99.90
21267;DHT22;10791;53.108;18.326;2023-06-14T18:51:15;15.40;99.90
21267;DHT22;10791;53.108;18.326;2023-06-14T18:56:20;15.50;99.90
21267;DHT22;10791;53.108;18.326;2023-06-14T19:01:24;15.60;99.90
21267;DHT22;10791;53.108;18.326;2023-06-14T19:06:29;15.60;99.90
21267;DHT22;10791;53.108;18.326;2023-06-14T19:11:32;15.60;99.90
21267;DHT22;10791;53.108;18.326;2023-06-14T19:16:37;15.60;99.90
21267;DHT22;10791;53.108;18.326;2023-06-14T19:21:46;15.70;99.90
21267;DHT22;10791;53.108;18.326;2023-06-14T19:26:50;15.70;99.90
21267;DHT22;10791;53.108;18.326;2023-06-14T19:31:53;15.70;99.90
21267;DHT22;10791;53.108;18.326;2023-06-14T19:36:57;15.70;99.90
21267;DHT22;10791;53.108;18.326;2023-06-14T19:42:01;15.70;99.90
21267;DHT22;10791;53.108;18.326;2023-06-14T19:47:05;15.80;99.90
21267;DHT22;10791;53.108;18.326;2023-06-14T19:52:09;15.70;99.90
21267;DHT22;10791;53.108;18.326;2023-06-14T19:57:12;15.50;99.90
21267;DHT22;10791;53.108;18.326;2023-06-14T20:02:18;15.40;99.90
21267;DHT22;10791;53.108;18.326;2023-06-14T20:07:23;15.20;99.90
21267;DHT22;10791;53.108;18.326;2023-06-14T20:12:27;15.00;99.90
21267;DHT22;10791;53.108;18.326;2023-06-14T20:17:32;15.00;99.90
21267;DHT22;10791;53.108;18.326;2023-06-14T20:22:36;14.70;99.90
21267;DHT22;10791;53.108;18.326;2023-06-14T20:27:43;14.60;99.90
21267;DHT22;10791;53.108;18.326;2023-06-14T20:32:47;14.50;99.90
21267;DHT22;10791;53.108;18.326;2023-06-14T20:37:50;14.50;99.90
21267;DHT22;10791;53.108;18.326;2023-06-14T20:42:54;14.40;99.90
21267;DHT22;10791;53.108;18.326;2023-06-14T20:48:02;14.50;99.90
21267;DHT22;10791;53.108;18.326;2023-06-14T20:53:09;14.50;99.90
21267;DHT22;10791;53.108;18.326;2023-06-14T20:58:12;14.50;99.90
21267;DHT22;10791;53.108;18.326;2023-06-14T21:03:18;14.50;99.90
21267;DHT22;10791;53.108;18.326;2023-06-14T21:08:22;14.40;99.90
21267;DHT22;10791;53.108;18.326;2023-06-14T21:13:25;14.40;99.90
21267;DHT22;10791;53.108;18.326;2023-06-14T21:18:29;14.50;99.90
21267;DHT22;10791;53.108;18.326;2023-06-14T21:23:33;14.50;99.90
21267;DHT22;10791;53.108;18.326;2023-06-14T21:28:36;14.50;99.90
21267;DHT22;10791;53.108;18.326;2023-06-14T21:33:39;14.60;99.90
21267;DHT22;10791;53.108;18.326;2023-06-14T21:38:43;14.60;99.90
21267;DHT22;10791;53.108;18.326;2023-06-14T21:43:46;14.60;99.90
21267;DHT22;10791;53.108;18.326;2023-06-14T21:48:50;14.60;99.90
21267;DHT22;10791;53.108;18.326;2023-06-14T21:53:55;14.50;99.90
21267;DHT22;10791;53.108;18.326;2023-06-14T21:58:58;14.50;99.90
21267;DHT22;10791;53.108;18.326;2023-06-14T22:04:02;14.50;99.90
21267;DHT22;10791;53.108;18.326;2023-06-14T22:09:06;14.50;99.90
21267;DHT22;10791;53.108;18.326;2023-06-14T22:14:11;14.50;99.90
21267;DHT22;10791;53.108;18.326;2023-06-14T22:19:15;14.50;99.90
21267;DHT22;10791;53.108;18.326;2023-06-14T22:24:19;14.50;99.90
21267;DHT22;10791;53.108;18.326;2023-06-14T22:29:23;14.50;99.90
21267;DHT22;10791;53.108;18.326;2023-06-14T22:34:28;14.50;99.90
21267;DHT22;10791;53.108;18.326;2023-06-14T22:39:32;14.50;99.90
21267;DHT22;10791;53.108;18.326;2023-06-14T22:44:36;14.50;99.90
21267;DHT22;10791;53.108;18.326;2023-06-14T22:49:40;14.50;99.90
21267;DHT22;10791;53.108;18.326;2023-06-14T22:54:44;14.50;99.90
21267;DHT22;10791;53.108;18.326;2023-06-14T22:59:47;14.50;99.90
21267;DHT22;10791;53.108;18.326;2023-06-14T23:04:51;14.50;99.90
21267;DHT22;10791;53.108;18.326;2023-06-14T23:09:56;14.50;99.90
21267;DHT22;10791;53.108;18.326;2023-06-14T23:15:01;14.50;99.90
21267;DHT22;10791;53.108;18.326;2023-06-14T23:20:08;14.50;99.90
21267;DHT22;10791;53.108;18.326;2023-06-14T23:25:16;14.50;99.90
21267;DHT22;10791;53.108;18.326;2023-06-14T23:30:20;14.50;99.90
21267;DHT22;10791;53.108;18.326;2023-06-14T23:35:23;14.50;99.90
21267;DHT22;10791;53.108;18.326;2023-06-14T23:40:29;14.50;99.90
21267;DHT22;10791;53.108;18.326;2023-06-14T23:45:34;14.40;99.90
21267;DHT22;10791;53.108;18.326;2023-06-14T23:50:37;14.40;99.90
21267;DHT22;10791;53.108;18.326;2023-06-14T23:55:41;14.40;99.90
